AirNav   TITAN Aviation Fuels
 
 1245 users online  

03CO Kugel-Strong Airport
Platteville, Colorado, USA

GOING TO PLATTEVILLE?


FAA INFORMATION EFFECTIVE 09 SEPTEMBER 2021

Location

FAA Identifier: 03CO
Lat/Long: 40-12-45.0000N 104-44-40.0000W
40-12.750000N 104-44.666667W
40.2125000,-104.7444444
(estimated)
Elevation: 4950 ft. / 1509 m (estimated)
Variation: 11E (1985)
From city: 3 miles E of PLATTEVILLE, CO
Time zone: UTC -6 (UTC -7 during Standard Time)
Zip code: 80651

Airport Operations

Airport use: Private use. Permission required prior to landing
Activation date: 12/1960
Control tower: no
ARTCC: DENVER CENTER
FSS: DENVER FLIGHT SERVICE STATION
Attendance: UNATNDD
Wind indicator: yes
Segmented circle: no

Airport Communications

WX AWOS-3PT at GXY (14 nm N): 135.175 (970-352-3511)
WX AWOS-3 at EIK (18 nm SW): 133.825 (303-604-4339)
WX AWOS-3PT at FNL (19 nm NW): 135.075 (970-669-9187)
WX AWOS-3 at LMO (19 nm W): 120.0 (303-684-7545)

Nearby radio navigation aids

VOR radial/distance  VOR name  Freq  Var
GLLr194/19.6GILL VOR/DME114.2013E
DVVr336/19.9MILE HIGH VORTAC114.7008E
DENr343/24.3DENVER VOR/DME117.9008E
BJCr034/25.5JEFFCO VOR/DME115.4011E
FQFr339/31.9FALCON VORTAC116.3011E

 
NDB name  Hdg/Dist  Freq  Var  ID
COLLN122/13.840009EFN ..-. -.

Airport Services

Airframe service: NONE
Powerplant service: NONE
Bottled oxygen: NONE
Bulk oxygen: NONE

Runway Information

Runway 13/31

Dimensions: 4000 x 30 ft. / 1219 x 9 m
Surface: asphalt, in good condition
RUNWAY 13  RUNWAY 31
Traffic pattern: leftleft
Runway end identifier lights: nono
Obstructions: trees, 302 ft. from runway, 3:1 slope to clear
+35' TREES 92' FROM RWY THR ON RWY CNTRLN EXTNDD.
none
+4' FENCE 40' FROM AND PARALLEL TO RWY THR.

Airport Ownership and Management from official FAA records

Ownership: Privately-owned
Owner: COLE KUGEL
420 LONGVIEW CT
LONGMONT, CO 80501
Phone 303-776-5175

Airport Operational Statistics

Aircraft based on the field: 3
Single engine airplanes: 3
    

Additional Remarks

BINS AND HANGAR ON NW SIDE OF RWY 13.
FOR CD CTC DENVER APCH AT 303-342-1916.

Instrument Procedures

There are no published instrument procedures at 03CO.

Some nearby airports with instrument procedures:

KGXY - Greeley-Weld County Airport (14 nm N)
KEIK - Erie Municipal Airport (18 nm SW)
KFNL - Northern Colorado Regional Airport (19 nm NW)
KLMO - Vance Brand Airport (19 nm W)
KDEN - Denver International Airport (21 nm S)
 
Loc | Ops | Rwys | IFR | FBO | Links
Com | Nav | Svcs | Stats | Notes

AirBoss

 
Area around 03CO (Kugel-Strong Airport)
 
Road maps at: MapQuest Bing Google
 
Aerial photo
No photo
 
Sectional chart

 
Airport distance calculator
Flying to Kugel-Strong Airport? Find the distance to fly.

From to 03CO

Sunrise and sunset
Times for 16-Sep-2021
 Local
(UTC-6)
 Zulu
(UTC)
Morning civil twilight06:1512:15
Sunrise06:4212:42
Sunset19:0601:06
Evening civil twilight19:3301:33

Current date and time
Zulu (UTC)  16-Sep-2021 22:42:36
Local (UTC-6)  16-Sep-2021 16:42:36
 
METAR
KGXY 
14nm NE 
162156Z AUTO 11005KT 10SM CLR 34/M02 A2982 RMK AO2 SLP054 T03391017
KEIK 
18nm SW 
162215Z AUTO 34008KT 10SM CLR 32/M04 A2984 RMK AO2 T03151041 PWINO
KFNL 
19nm NW 
162156Z 15006KT 10SM CLR 32/M01 A2984 RMK AO2 SLP034 T03221006
KLMO 
19nm W 
162215Z AUTO 00000KT 10SM CLR 32/M03 A2985 RMK AO2 T03241028
TAF
KDEN 
23nm S 
162106Z 1621/1724 18010KT P6SM SCT090 SCT130 FM162300 34012KT P6SM SCT090 BKN130 FM170600 36020G40KT P6SM SCT130 FM170800 36014G22KT P6SM FEW025 FM171100 02011KT P6SM BKN020 OVC030 FM171600 07007KT P6SM FEW040 FM172000 13010KT P6SM FEW120
KBJC 
25nm SW 
162106Z 1621/1718 36007KT P6SM SCT090 BKN130 FM170100 33011KT P6SM SCT090 BKN130 FM170600 36017G35KT P6SM SCT130 FM170800 02012G20KT P6SM FEW025 FM171100 04011KT P6SM BKN020 OVC030 FM171600 07007KT P6SM FEW040
NOTAMs
Click for the latest NOTAMs
NOTAMs are issued by the DoD/FAA and will open in a separate window not controlled by AirNav.

 

 
 

Would you like to see your business listed on this page?

 If your business provides an interesting product or service to pilots, flight crews, aircraft, or users of the Kugel-Strong Airport, you should consider listing it here.  To start the listing process, click on the button below
 
Add a business
 

Other Pages about Kugel-Strong Airport

Update a link
 
Copyright © AirNav, LLC. All rights reserved. Privacy Policy  Contact